Time;durP1;ratioP1;P1;durP2;ratioP2;P2;SDS_P1;SDS_P2;PMS_P1;PMS_P2;Temp;Humidity;BMP_temperature;BMP_pressure;BME280_temperature;BME280_humidity;BME280_pressure;Samples;Min_cycle;Max_cycle;Signal;HPM_P1;HPM_P2
2023/01/02 00:02:12;;;;;;;172.57;88.13;;;;;;;4.26;100.00;96013.16;5086612;28;20186;-79
2023/01/02 00:04:38;;;;;;;170.57;86.23;;;;;;;4.30;100.00;96017.03;5083615;28;20199;-79
2023/01/02 00:07:05;;;;;;;156.87;79.50;;;;;;;4.31;100.00;96004.97;5084386;28;20197;-78
2023/01/02 00:09:32;;;;;;;169.03;77.03;;;;;;;4.25;100.00;96001.22;5087518;28;20195;-80
2023/01/02 00:12:00;;;;;;;159.83;79.27;;;;;;;4.12;100.00;96005.13;5086029;28;20676;-81
2023/01/02 00:14:27;;;;;;;157.23;76.83;;;;;;;4.05;100.00;95999.72;5087641;28;20205;-79
2023/01/02 00:16:54;;;;;;;148.73;75.70;;;;;;;4.11;100.00;96000.91;5083764;28;20194;-81
2023/01/02 00:19:21;;;;;;;162.87;79.63;;;;;;;4.14;100.00;96000.63;5084146;28;20648;-78
2023/01/02 00:21:48;;;;;;;161.97;79.73;;;;;;;4.04;100.00;95987.03;5087863;28;20190;-78
2023/01/02 00:24:14;;;;;;;162.97;78.57;;;;;;;4.11;100.00;96003.50;5087065;28;20205;-79
2023/01/02 00:26:41;;;;;;;168.47;83.43;;;;;;;4.09;100.00;96000.25;5086864;28;20209;-79
2023/01/02 00:29:10;;;;;;;177.23;88.87;;;;;;;4.13;100.00;96002.38;5083089;28;20257;-76
2023/01/02 00:31:37;;;;;;;209.27;100.37;;;;;;;4.20;100.00;96006.00;5083569;28;20210;-77
2023/01/02 00:34:03;;;;;;;203.03;99.13;;;;;;;4.17;100.00;96003.72;5080876;28;20598;-77
2023/01/02 00:36:30;;;;;;;221.80;102.23;;;;;;;3.96;100.00;95985.97;5088972;28;20193;-79
2023/01/02 00:38:57;;;;;;;208.90;99.23;;;;;;;4.00;100.00;96002.75;5086079;28;20205;-78
2023/01/02 00:41:24;;;;;;;213.23;101.90;;;;;;;3.93;100.00;96009.41;5086929;28;20196;-79
2023/01/02 00:43:51;;;;;;;222.23;106.50;;;;;;;3.89;100.00;95992.66;5087447;28;20684;-78
2023/01/02 00:46:19;;;;;;;223.63;106.20;;;;;;;3.84;100.00;95989.69;5084549;28;20185;-86
2023/01/02 00:48:46;;;;;;;231.17;106.20;;;;;;;3.96;100.00;95988.53;5089715;28;20212;-75
2023/01/02 00:51:13;;;;;;;251.40;111.23;;;;;;;3.99;100.00;95993.41;5086135;28;20202;-79
2023/01/02 00:53:39;;;;;;;223.10;107.47;;;;;;;4.08;100.00;96007.16;5084769;28;20223;-79
2023/01/02 00:56:07;;;;;;;219.63;103.47;;;;;;;4.04;100.00;96005.03;5089859;28;20200;-80
2023/01/02 00:58:34;;;;;;;202.63;98.63;;;;;;;4.03;100.00;96004.22;5091389;28;20202;-81
2023/01/02 01:01:00;;;;;;;216.03;102.93;;;;;;;4.03;100.00;96011.94;5084952;28;20202;-77
2023/01/02 01:03:29;;;;;;;220.93;106.33;;;;;;;3.98;100.00;96007.22;5082134;28;20185;-77
2023/01/02 01:05:56;;;;;;;227.53;106.57;;;;;;;4.00;100.00;96002.75;5086183;28;20201;-80
2023/01/02 01:08:23;;;;;;;216.43;105.97;;;;;;;3.97;100.00;96003.03;5085680;28;20197;-81
2023/01/02 01:10:50;;;;;;;230.70;108.30;;;;;;;3.88;100.00;96006.47;5086009;28;20203;-81
2023/01/02 01:13:17;;;;;;;225.57;106.73;;;;;;;3.82;100.00;96004.47;5090152;28;20618;-80
2023/01/02 01:15:44;;;;;;;218.77;103.97;;;;;;;3.88;100.00;95993.59;5086490;28;20675;-82
2023/01/02 01:18:11;;;;;;;221.10;104.70;;;;;;;3.87;100.00;95999.69;5089221;28;21591;-82
2023/01/02 01:20:39;;;;;;;211.73;105.43;;;;;;;3.88;100.00;96001.31;5090787;28;20211;-82
2023/01/02 01:23:06;;;;;;;210.23;102.17;;;;;;;3.74;100.00;95993.28;5089185;28;20198;-81
2023/01/02 01:25:33;;;;;;;210.93;101.10;;;;;;;3.66;100.00;95996.56;5090278;28;20212;-83
2023/01/02 01:27:59;;;;;;;209.93;100.20;;;;;;;3.61;100.00;95990.25;5089520;28;20200;-80
2023/01/02 01:30:26;;;;;;;201.03;94.67;;;;;;;3.69;100.00;96008.31;5085753;28;20207;-81
2023/01/02 01:32:53;;;;;;;200.93;96.30;;;;;;;3.74;100.00;95998.41;5088067;28;20228;-81
2023/01/02 01:35:20;;;;;;;188.17;88.90;;;;;;;3.75;100.00;95997.47;5086394;28;20686;-81
2023/01/02 01:37:48;;;;;;;185.30;86.73;;;;;;;3.74;100.00;95991.53;5088230;28;20192;-81
2023/01/02 01:40:15;;;;;;;175.43;88.10;;;;;;;3.76;100.00;95993.94;5088357;28;20188;-81
2023/01/02 01:42:42;;;;;;;167.63;81.77;;;;;;;3.76;100.00;95991.38;5089278;28;20197;-82
2023/01/02 01:45:17;;;;;;;171.73;83.03;;;;;;;3.76;100.00;95989.59;5088428;28;20249;-82
2023/01/02 01:47:47;;;;;;;156.77;78.00;;;;;;;3.76;100.00;95981.09;5089026;28;20994;-82
2023/01/02 01:50:18;;;;;;;149.90;75.00;;;;;;;3.69;100.00;95986.00;5086163;28;20209;-81
2023/01/02 01:52:51;;;;;;;153.03;74.37;;;;;;;3.58;100.00;95975.09;5086664;28;20254;-81
2023/01/02 01:55:22;;;;;;;153.93;71.47;;;;;;;3.53;100.00;95977.25;5084554;28;20189;-79
2023/01/02 01:57:53;;;;;;;143.63;68.80;;;;;;;3.62;100.00;95977.22;5082597;28;20255;-81
2023/01/02 02:00:20;;;;;;;132.00;61.07;;;;;;;3.59;100.00;95974.94;5090350;28;20197;-81
2023/01/02 02:02:51;;;;;;;116.30;53.93;;;;;;;3.63;100.00;95968.56;5088193;28;20227;-82
2023/01/02 02:05:23;;;;;;;101.57;50.43;;;;;;;3.62;100.00;95974.66;5088974;28;20204;-81
2023/01/02 02:08:02;;;;;;;95.17;47.57;;;;;;;3.51;100.00;95966.31;5089021;28;20212;-81
2023/01/02 02:10:29;;;;;;;114.67;57.10;;;;;;;3.47;100.00;95970.13;5085048;28;20189;-80
2023/01/02 02:12:56;;;;;;;133.57;61.73;;;;;;;3.48;100.00;95969.19;5089361;28;20224;-80
2023/01/02 02:15:32;;;;;;;126.87;61.67;;;;;;;3.39;100.00;95974.22;5086726;28;20197;-79
2023/01/02 02:18:09;;;;;;;120.37;58.90;;;;;;;3.35;100.00;95972.88;5084042;28;20199;-77
2023/01/02 02:20:48;;;;;;;106.37;52.07;;;;;;;3.40;100.00;95978.41;5082887;28;20227;-77
2023/01/02 02:23:50;;;;;;;113.30;56.67;;;;;;;3.48;100.00;95976.88;5088654;28;21446;-82
2023/01/02 02:26:55;;;;;;;129.57;61.70;;;;;;;3.41;100.00;95974.06;5082885;28;20212;-82
2023/01/02 02:29:55;;;;;;;130.70;61.77;;;;;;;3.42;100.00;95975.69;5088052;28;20613;-82
2023/01/02 02:32:30;;;;;;;125.93;57.20;;;;;;;3.46;100.00;95969.34;5085330;28;20212;-81
2023/01/02 02:35:05;;;;;;;116.17;56.43;;;;;;;3.38;100.00;95975.16;5089603;28;20185;-81
2023/01/02 02:37:38;;;;;;;119.40;57.17;;;;;;;3.41;100.00;95969.75;5087260;28;20188;-84
2023/01/02 02:40:15;;;;;;;116.50;57.33;;;;;;;3.44;100.00;95968.66;5088064;28;20196;-80
2023/01/02 02:42:50;;;;;;;126.03;58.80;;;;;;;3.37;100.00;95970.19;5083208;28;20704;-79
2023/01/02 02:45:30;;;;;;;120.53;58.00;;;;;;;3.39;100.00;95968.28;5085442;28;20193;-80
2023/01/02 02:48:05;;;;;;;120.63;59.20;;;;;;;3.22;100.00;95951.84;5086703;28;20635;-79
2023/01/02 02:50:39;;;;;;;131.23;62.93;;;;;;;3.23;100.00;95966.28;5081711;28;20187;-80
2023/01/02 02:53:11;;;;;;;135.50;61.40;;;;;;;3.32;100.00;95954.34;5081025;28;20259;-81
2023/01/02 02:55:44;;;;;;;129.07;60.73;;;;;;;3.30;100.00;95956.25;5084489;28;20189;-79
2023/01/02 02:58:13;;;;;;;129.00;60.33;;;;;;;3.29;100.00;95950.31;5083345;28;20205;-80
2023/01/02 03:00:41;;;;;;;122.43;60.50;;;;;;;3.18;100.00;95935.09;5085908;28;20201;-82
2023/01/02 03:03:15;;;;;;;132.73;62.43;;;;;;;3.12;100.00;95950.25;5083910;28;20185;-79
2023/01/02 03:05:46;;;;;;;131.37;60.70;;;;;;;3.10;100.00;95941.88;5084227;28;20196;-79
2023/01/02 03:08:22;;;;;;;138.17;63.70;;;;;;;3.11;100.00;95939.19;5082350;28;21654;-80
2023/01/02 03:10:52;;;;;;;132.63;63.60;;;;;;;3.07;100.00;95939.59;5088241;28;20290;-80
2023/01/02 03:13:25;;;;;;;142.30;64.73;;;;;;;3.03;100.00;95943.41;5087709;28;20213;-78
2023/01/02 03:16:04;;;;;;;144.47;68.17;;;;;;;3.04;100.00;95945.81;5080853;28;20204;-77
2023/01/02 03:18:36;;;;;;;147.73;68.57;;;;;;;3.07;100.00;95940.41;5081340;28;20256;-77
2023/01/02 03:21:08;;;;;;;151.60;72.90;;;;;;;3.10;100.00;95941.88;5077446;28;20177;-77
2023/01/02 03:23:42;;;;;;;145.50;71.47;;;;;;;3.09;100.00;95938.50;5084472;28;20204;-77
2023/01/02 03:26:10;;;;;;;138.97;68.23;;;;;;;3.07;100.00;95948.09;5086439;28;20212;-81
2023/01/02 03:28:40;;;;;;;142.43;69.13;;;;;;;3.10;100.00;95950.41;5087277;28;20196;-81
2023/01/02 03:31:11;;;;;;;142.77;69.40;;;;;;;3.07;100.00;95948.09;5086478;28;20196;-81
2023/01/02 03:33:43;;;;;;;148.20;69.00;;;;;;;2.92;100.00;95939.22;5087864;28;20225;-82
2023/01/02 03:36:16;;;;;;;138.40;65.97;;;;;;;3.00;100.00;95949.59;5088610;28;20188;-82
2023/01/02 03:38:47;;;;;;;131.80;66.63;;;;;;;3.03;100.00;95958.81;5088015;28;20196;-81
2023/01/02 03:41:21;;;;;;;130.13;63.07;;;;;;;3.06;100.00;95968.81;5087975;28;20240;-80
2023/01/02 03:43:51;;;;;;;121.07;60.67;;;;;;;3.06;100.00;95961.09;5082757;28;20181;-77
2023/01/02 03:46:29;;;;;;;125.90;62.20;;;;;;;2.94;100.00;95941.66;5081313;28;20196;-78
2023/01/02 03:49:01;;;;;;;115.77;57.60;;;;;;;3.06;100.00;95974.72;5079661;28;20199;-78
2023/01/02 03:51:28;;;;;;;111.00;55.43;;;;;;;2.88;100.00;95961.00;5080420;28;20185;-80
2023/01/02 03:53:55;;;;;;;123.13;62.20;;;;;;;2.96;100.00;95973.13;5079442;28;20703;-80
2023/01/02 03:56:30;;;;;;;126.43;62.17;;;;;;;3.04;100.00;95978.38;5078729;28;20197;-80
2023/01/02 03:59:03;;;;;;;123.07;60.80;;;;;;;3.07;100.00;95984.06;5086036;28;20192;-81
2023/01/02 04:01:38;;;;;;;123.13;60.93;;;;;;;3.05;100.00;95980.81;5082207;28;20196;-82
2023/01/02 04:04:13;;;;;;;112.30;58.13;;;;;;;2.97;100.00;95985.03;5079915;28;20184;-82
2023/01/02 04:06:45;;;;;;;129.10;63.47;;;;;;;3.03;100.00;95984.47;5084949;28;20192;-81
2023/01/02 04:09:17;;;;;;;130.80;61.77;;;;;;;3.01;100.00;95981.22;5085292;28;20192;-82
2023/01/02 04:11:49;;;;;;;117.83;60.13;;;;;;;3.01;100.00;95981.22;5084018;28;20197;-82
2023/01/02 04:14:19;;;;;;;126.13;59.53;;;;;;;2.97;100.00;95982.47;5081628;28;20281;-82
2023/01/02 04:16:49;;;;;;;101.93;50.33;;;;;;;2.98;100.00;95984.88;5080881;28;20216;-82
2023/01/02 04:19:23;;;;;;;103.57;51.50;;;;;;;2.91;100.00;95985.59;5073356;28;20287;-81
2023/01/02 04:21:54;;;;;;;108.73;50.57;;;;;;;2.98;100.00;95989.19;5085114;28;20195;-78
2023/01/02 04:24:26;;;;;;;114.17;52.27;;;;;;;2.97;100.00;95997.88;5088745;28;20200;-76
2023/01/02 04:26:59;;;;;;;94.50;46.87;;;;;;;2.93;100.00;95999.06;5086272;28;20196;-76
2023/01/02 04:29:26;;;;;;;99.40;46.57;;;;;;;2.82;100.00;96000.06;5082359;28;20185;-77
2023/01/02 04:32:01;;;;;;;93.30;44.90;;;;;;;2.77;100.00;95995.31;5084161;28;20196;-77
2023/01/02 04:34:32;;;;;;;100.47;44.77;;;;;;;2.79;100.00;95996.00;5087528;28;20208;-85
2023/01/02 04:36:59;;;;;;;85.90;43.73;;;;;;;2.72;100.00;95994.91;5084327;28;20189;-77
2023/01/02 04:39:28;;;;;;;102.17;44.50;;;;;;;2.74;100.00;95993.00;5083807;28;20201;-76
2023/01/02 04:41:55;;;;;;;100.60;46.67;;;;;;;2.84;100.00;96005.84;5086413;28;20221;-76
2023/01/02 04:44:22;;;;;;;90.43;44.37;;;;;;;2.74;100.00;95997.38;5084759;28;20180;-76
2023/01/02 04:46:48;;;;;;;94.53;45.33;;;;;;;2.86;100.00;96004.75;5086247;28;20193;-76
2023/01/02 04:49:17;;;;;;;99.17;47.93;;;;;;;2.82;100.00;96002.63;5084401;28;20197;-76
2023/01/02 04:51:43;;;;;;;98.73;48.10;;;;;;;2.86;100.00;96003.94;5085582;28;20246;-77
2023/01/02 04:54:11;;;;;;;102.17;48.57;;;;;;;2.80;100.00;96004.50;5083701;28;20675;-76
2023/01/02 04:56:38;;;;;;;94.33;46.23;;;;;;;2.79;100.00;96008.03;5078994;28;20586;-76
2023/01/02 04:59:05;;;;;;;95.60;45.03;;;;;;;2.74;100.00;96002.50;5079643;28;20203;-77
2023/01/02 05:01:32;;;;;;;92.97;45.43;;;;;;;2.68;100.00;95996.16;5083793;28;20279;-77
2023/01/02 05:03:59;;;;;;;91.87;45.50;;;;;;;2.65;100.00;95996.44;5088262;28;20189;-80
2023/01/02 05:06:27;;;;;;;90.90;44.63;;;;;;;2.58;100.00;95999.66;5087621;28;20185;-81
2023/01/02 05:08:54;;;;;;;92.07;44.80;;;;;;;2.51;100.00;95993.47;5089708;28;20189;-81
2023/01/02 05:11:21;;;;;;;98.57;46.07;;;;;;;2.54;100.00;95988.84;5086555;28;20204;-80
2023/01/02 05:13:48;;;;;;;90.77;45.00;;;;;;;2.66;100.00;95998.03;5087366;28;20227;-80
2023/01/02 05:16:15;;;;;;;90.90;44.97;;;;;;;2.71;100.00;96003.56;5088170;28;20850;-80
2023/01/02 05:18:41;;;;;;;95.53;45.47;;;;;;;2.71;100.00;95995.84;5087885;28;20197;-81
2023/01/02 05:23:47;;;;;;;98.07;45.30;;;;;;;2.70;100.00;95998.56;5087594;28;20192;-80
2023/01/02 05:24:01;;;;;;;99.83;47.57;;;;;;;2.56;100.00;95979.28;5086419;28;20185;-81
2023/01/02 05:26:29;;;;;;;96.80;48.50;;;;;;;2.60;100.00;95990.06;5090079;28;20519;-81
2023/01/02 05:28:56;;;;;;;105.17;49.00;;;;;;;2.50;100.00;95984.13;5089460;28;20197;-81
2023/01/02 05:31:23;;;;;;;108.37;51.70;;;;;;;2.58;100.00;95982.50;5084856;28;20510;-80
2023/01/02 05:33:53;;;;;;;106.90;50.57;;;;;;;2.47;100.00;95986.97;5086971;28;20223;-80
2023/01/02 05:36:20;;;;;;;115.37;52.07;;;;;;;2.52;100.00;95980.47;5084290;28;21127;-80
2023/01/02 05:38:47;;;;;;;102.67;52.00;;;;;;;2.49;100.00;95982.50;5086409;28;20208;-81
2023/01/02 05:41:16;;;;;;;102.20;50.70;;;;;;;2.43;100.00;95985.59;5090843;28;20219;-81
2023/01/02 05:43:43;;;;;;;103.90;51.70;;;;;;;2.51;100.00;95986.53;5088129;28;20671;-82
2023/01/02 05:46:11;;;;;;;100.83;51.00;;;;;;;2.47;100.00;95986.97;5088388;28;20200;-81
2023/01/02 05:48:39;;;;;;;105.87;51.53;;;;;;;2.48;100.00;95991.94;5091657;28;20193;-82
2023/01/02 05:51:08;;;;;;;111.47;53.27;;;;;;;2.41;100.00;95972.13;5089096;28;20292;-82
2023/01/02 05:53:35;;;;;;;133.73;61.00;;;;;;;2.53;100.00;95994.94;5088867;28;20294;-81
2023/01/02 05:56:06;;;;;;;116.97;58.33;;;;;;;2.39;100.00;95989.41;5087972;28;20194;-80
2023/01/02 05:58:35;;;;;;;149.70;69.57;;;;;;;2.38;100.00;95998.84;5088548;28;20586;-81
2023/01/02 06:01:07;;;;;;;173.83;85.70;;;;;;;2.45;100.00;96002.50;5088618;28;20201;-80
2023/01/02 06:03:34;;;;;;;197.03;88.60;;;;;;;2.41;100.00;96002.91;5083651;28;20663;-80
2023/01/02 06:06:06;;;;;;;199.57;92.07;;;;;;;2.36;100.00;96005.88;5084558;28;20184;-79
2023/01/02 06:08:33;;;;;;;192.80;90.00;;;;;;;2.42;100.00;96009.66;5083346;28;20204;-81
2023/01/02 06:11:00;;;;;;;193.07;88.90;;;;;;;2.36;100.00;96005.88;5082131;28;20202;-76
2023/01/02 06:13:29;;;;;;;177.50;82.40;;;;;;;2.40;100.00;96022.59;5086878;28;20251;-79
2023/01/02 06:15:58;;;;;;;157.33;73.37;;;;;;;2.50;100.00;96027.75;5085769;28;20257;-81
2023/01/02 06:18:25;;;;;;;133.27;65.37;;;;;;;2.50;100.00;96022.63;5086419;28;20196;-83
2023/01/02 06:20:52;;;;;;;123.13;59.97;;;;;;;2.48;100.00;96029.63;5087608;28;20200;-83
2023/01/02 06:23:19;;;;;;;125.47;58.37;;;;;;;2.51;100.00;96029.38;5088258;28;20219;-83
2023/01/02 06:25:46;;;;;;;116.70;55.77;;;;;;;2.56;100.00;96035.72;5081195;28;20216;-78
2023/01/02 06:28:12;;;;;;;114.23;54.37;;;;;;;2.54;100.00;96029.09;5083473;28;20637;-78
2023/01/02 06:30:39;;;;;;;111.47;54.73;;;;;;;2.57;100.00;96034.75;5082317;28;20185;-80
2023/01/02 06:33:07;;;;;;;112.83;53.90;;;;;;;2.56;100.00;96033.16;5084509;28;20296;-79
2023/01/02 06:35:34;;;;;;;108.40;51.33;;;;;;;2.63;100.00;96036.78;5083190;28;20533;-79
2023/01/02 06:38:01;;;;;;;111.10;51.07;;;;;;;2.65;100.00;96027.22;5083992;28;20189;-84
2023/01/02 06:40:28;;;;;;;106.67;52.27;;;;;;;2.72;100.00;96035.16;5088930;28;20199;-83
2023/01/02 06:42:55;;;;;;;100.50;50.57;;;;;;;2.67;100.00;96037.34;5084326;28;20197;-78
2023/01/02 06:45:22;;;;;;;103.13;50.43;;;;;;;2.71;100.00;96034.34;5084401;28;20192;-84
2023/01/02 06:47:56;;;;;;;98.87;48.47;;;;;;;2.72;100.00;96033.41;5088543;28;20219;-83
2023/01/02 06:50:24;;;;;;;108.07;50.27;;;;;;;2.75;100.00;96032.31;5086646;28;20203;-80
2023/01/02 06:52:51;;;;;;;102.07;49.77;;;;;;;2.86;100.00;96034.75;5083121;28;20188;-79
2023/01/02 06:55:18;;;;;;;108.80;50.60;;;;;;;2.94;100.00;96034.09;5084766;28;20655;-83
2023/01/02 06:57:45;;;;;;;103.27;47.63;;;;;;;2.96;100.00;96035.56;5086952;28;20197;-81
2023/01/02 07:00:13;;;;;;;103.03;47.83;;;;;;;2.89;100.00;96031.13;5085791;28;20199;-81
2023/01/02 07:02:40;;;;;;;105.47;49.37;;;;;;;2.89;100.00;96037.03;5085379;28;20185;-80
2023/01/02 07:05:08;;;;;;;100.90;48.37;;;;;;;2.82;100.00;96033.41;5082464;28;20184;-80
2023/01/02 07:07:36;;;;;;;104.37;51.63;;;;;;;2.85;100.00;96039.09;5087206;28;20200;-82
2023/01/02 07:10:03;;;;;;;104.27;50.73;;;;;;;2.99;100.00;96037.03;5083018;28;20193;-79
2023/01/02 07:12:30;;;;;;;102.93;48.70;;;;;;;2.98;100.00;96046.50;5083070;28;20651;-81
2023/01/02 07:14:57;;;;;;;108.27;50.27;;;;;;;2.94;100.00;96042.59;5086491;28;20205;-80
2023/01/02 07:17:24;;;;;;;116.00;52.80;;;;;;;2.89;100.00;96041.41;5088173;28;20189;-80
2023/01/02 07:19:51;;;;;;;141.43;59.07;;;;;;;2.87;100.00;96041.50;5087355;28;20651;-77
2023/01/02 07:22:17;;;;;;;130.37;59.17;;;;;;;3.00;100.00;96047.16;5080343;28;20279;-75
2023/01/02 07:24:46;;;;;;;142.03;63.40;;;;;;;3.04;100.00;96040.00;5080660;28;20832;-77
2023/01/02 07:27:12;;;;;;;143.57;61.73;;;;;;;3.07;100.00;96043.13;5081775;28;20196;-75
2023/01/02 07:29:39;;;;;;;136.80;64.37;;;;;;;3.07;100.00;96042.28;5083099;28;20197;-76
2023/01/02 07:32:06;;;;;;;133.93;62.47;;;;;;;3.11;100.00;96041.91;5080665;28;20671;-76
2023/01/02 07:34:33;;;;;;;147.70;64.23;;;;;;;3.22;100.00;96049.44;5079727;28;20225;-76
2023/01/02 07:36:59;;;;;;;152.20;65.97;;;;;;;3.25;100.00;96046.59;5081130;28;20228;-75
2023/01/02 07:39:26;;;;;;;162.60;67.70;;;;;;;3.34;100.00;96048.34;5085351;28;20244;-76
2023/01/02 07:41:54;;;;;;;149.90;66.63;;;;;;;3.32;100.00;96045.09;5078396;28;20201;-76
2023/01/02 07:44:21;;;;;;;148.87;66.87;;;;;;;3.41;100.00;96038.28;5080266;28;20185;-77
2023/01/02 07:46:48;;;;;;;160.10;69.33;;;;;;;3.46;100.00;96043.84;5081122;28;20257;-77
2023/01/02 07:49:15;;;;;;;166.20;70.07;;;;;;;3.45;100.00;96047.34;5081697;28;20201;-77
2023/01/02 07:51:42;;;;;;;170.93;68.23;;;;;;;3.55;100.00;96048.13;5084096;28;20188;-76
2023/01/02 07:54:09;;;;;;;164.27;70.47;;;;;;;3.59;100.00;96051.22;5083609;28;20220;-77
2023/01/02 07:56:35;;;;;;;159.77;70.73;;;;;;;3.67;100.00;96046.19;5087877;28;20197;-77
2023/01/02 07:59:04;;;;;;;158.27;69.77;;;;;;;3.69;100.00;96046.88;5083978;28;20203;-77
2023/01/02 08:01:30;;;;;;;156.83;69.47;;;;;;;3.76;100.00;96053.06;5087767;28;20666;-77
2023/01/02 08:03:57;;;;;;;167.77;73.57;;;;;;;3.70;100.00;96045.91;5085281;28;20185;-76
2023/01/02 08:06:25;;;;;;;162.73;72.47;;;;;;;3.76;100.00;96051.31;5083059;28;20197;-78
2023/01/02 08:08:51;;;;;;;159.00;71.70;;;;;;;3.83;100.00;96039.50;5084005;28;20593;-78
2023/01/02 08:11:20;;;;;;;165.43;71.53;;;;;;;3.93;100.00;96045.41;5082891;28;20197;-75
2023/01/02 08:13:48;;;;;;;165.07;75.73;;;;;;;3.95;100.00;96045.28;5085191;28;20200;-73
2023/01/02 08:16:18;;;;;;;168.90;76.60;;;;;;;4.01;100.00;96039.56;5081912;28;20193;-74
2023/01/02 08:18:46;;;;;;;181.37;79.30;;;;;;;3.97;100.00;96041.63;5080748;28;20195;-73
2023/01/02 08:21:16;;;;;;;182.27;79.03;;;;;;;4.01;100.00;96044.72;5084799;28;20570;-74
2023/01/02 08:23:43;;;;;;;186.00;79.93;;;;;;;4.03;100.00;96034.28;5081449;28;20822;-73
2023/01/02 08:26:11;;;;;;;184.37;81.77;;;;;;;4.11;100.00;96036.94;5079605;28;20555;-74
2023/01/02 08:28:39;;;;;;;174.90;78.27;;;;;;;4.15;100.00;96027.97;5081130;28;20653;-74
2023/01/02 08:31:09;;;;;;;156.13;77.53;;;;;;;4.17;100.00;96036.34;5081179;28;20201;-74
2023/01/02 08:33:37;;;;;;;151.27;72.37;;;;;;;4.26;100.00;96038.88;5082960;28;20312;-73
2023/01/02 08:36:04;;;;;;;144.17;70.67;;;;;;;4.35;100.00;96032.06;5085559;28;20218;-74
2023/01/02 08:38:31;;;;;;;142.93;67.87;;;;;;;4.37;100.00;96028.38;5084138;28;20197;-74
2023/01/02 08:40:58;;;;;;;145.63;68.13;;;;;;;4.44;100.00;96034.53;5088584;28;20198;-74
2023/01/02 08:43:25;;;;;;;143.57;69.40;;;;;;;4.58;100.00;96040.97;5085967;28;21002;-74
2023/01/02 08:45:52;;;;;;;144.00;71.23;;;;;;;4.69;100.00;96029.63;5084876;28;20199;-73
2023/01/02 08:48:19;;;;;;;138.37;68.00;;;;;;;4.73;100.00;96024.06;5085064;28;20194;-73
2023/01/02 08:50:47;;;;;;;140.80;67.37;;;;;;;4.84;100.00;96025.59;5084060;28;20199;-74
2023/01/02 08:53:14;;;;;;;146.03;69.47;;;;;;;4.95;100.00;96017.63;5085190;28;20193;-74
2023/01/02 08:55:41;;;;;;;134.73;66.23;;;;;;;5.03;100.00;96027.97;5082128;28;20222;-75
2023/01/02 08:58:07;;;;;;;139.47;67.63;;;;;;;5.08;100.00;96020.59;5086377;28;20193;-73
2023/01/02 09:00:34;;;;;;;155.07;69.37;;;;;;;5.17;100.00;96017.13;5085211;28;20253;-75
2023/01/02 09:03:01;;;;;;;150.23;72.03;;;;;;;5.15;100.00;96009.56;5082707;28;20190;-74
2023/01/02 09:05:29;;;;;;;154.27;72.40;;;;;;;5.28;100.00;96005.78;5085255;28;20199;-73
2023/01/02 09:07:58;;;;;;;141.97;69.50;;;;;;;5.33;100.00;96000.97;5083414;28;20685;-74
2023/01/02 09:10:25;;;;;;;143.87;68.87;;;;;;;5.39;100.00;95997.78;5087674;28;20559;-74
2023/01/02 09:12:52;;;;;;;148.87;71.50;;;;;;;5.57;100.00;95991.59;5085094;28;20560;-74
2023/01/02 09:15:18;;;;;;;141.33;70.37;;;;;;;5.72;100.00;95994.41;5083683;28;20227;-75
2023/01/02 09:17:45;;;;;;;153.33;72.07;;;;;;;5.81;100.00;95985.72;5083136;28;20329;-73
2023/01/02 09:20:12;;;;;;;146.10;69.87;;;;;;;5.95;100.00;95990.31;5085624;28;20189;-74
2023/01/02 09:22:39;;;;;;;151.53;71.27;;;;;;;6.04;100.00;95997.13;5084300;28;20579;-74
2023/01/02 09:25:08;;;;;;;141.03;72.03;;;;;;;6.09;100.00;95997.47;5082976;28;20193;-75
2023/01/02 09:27:35;;;;;;;149.77;70.90;;;;;;;6.16;100.00;95982.16;5084816;28;20234;-74
2023/01/02 09:30:02;;;;;;;150.77;72.53;;;;;;;6.21;100.00;95980.72;5085181;28;20202;-84
2023/01/02 09:32:30;;;;;;;143.83;71.17;;;;;;;6.31;100.00;95977.19;5090154;28;20188;-82
2023/01/02 09:34:57;;;;;;;144.90;70.70;;;;;;;6.38;100.00;95968.66;5089978;28;20771;-84
2023/01/02 09:37:24;;;;;;;156.13;70.70;;;;;;;6.40;100.00;95968.50;5090595;28;20197;-84
2023/01/02 09:39:51;;;;;;;151.23;72.07;;;;;;;6.47;100.00;95966.88;5092514;28;20201;-82
2023/01/02 09:42:19;;;;;;;137.23;68.07;;;;;;;6.52;100.00;95962.06;5091519;28;20189;-90
2023/01/02 09:44:49;;;;;;;139.13;68.07;;;;;;;6.60;100.00;95964.66;5087742;28;20282;-87
2023/01/02 09:47:19;;;;;;;141.37;67.40;;;;;;;6.57;100.00;95957.22;5087756;28;20201;-75
2023/01/02 09:49:49;;;;;;;136.80;66.93;;;;;;;6.54;99.82;95942.03;5084545;28;20812;-76
2023/01/02 09:52:20;;;;;;;147.90;69.07;;;;;;;6.63;100.00;95949.66;5086357;28;20203;-77
2023/01/02 09:54:47;;;;;;;146.47;70.37;;;;;;;6.71;99.64;95952.22;5085556;28;20236;-76
2023/01/02 09:57:31;;;;;;;142.30;69.23;;;;;;;6.85;98.68;95948.16;5085461;28;20212;-77
2023/01/02 10:00:03;;;;;;;134.57;66.37;;;;;;;7.19;98.17;95950.53;5081260;28;20303;-75
2023/01/02 10:02:43;;;;;;;128.37;66.60;;;;;;;8.38;95.43;95939.84;5085804;28;20197;-74
2023/01/02 10:05:30;;;;;;;127.23;66.30;;;;;;;10.40;85.50;95949.91;5082364;28;20648;-74
2023/01/02 10:08:06;;;;;;;120.07;63.13;;;;;;;12.05;75.08;95942.28;5083345;28;20192;-75
2023/01/02 10:10:38;;;;;;;126.13;61.97;;;;;;;13.58;68.85;95947.28;5085169;28;20200;-77
2023/01/02 10:13:16;;;;;;;115.07;61.17;;;;;;;15.23;63.43;95955.09;5084138;28;20197;-75
2023/01/02 10:15:47;;;;;;;111.67;61.07;;;;;;;16.93;58.01;95950.53;5085091;28;20224;-74
2023/01/02 10:18:20;;;;;;;107.77;60.93;;;;;;;18.38;53.67;95932.19;5080334;28;20196;-75
2023/01/02 10:20:53;;;;;;;104.70;59.23;;;;;;;19.09;51.03;95953.50;5084151;28;21599;-75
2023/01/02 10:23:25;;;;;;;106.50;62.60;;;;;;;19.95;49.14;95944.25;5082961;28;20185;-73
2023/01/02 10:25:58;;;;;;;109.13;60.97;;;;;;;20.65;46.38;95948.78;5082004;28;20195;-73
2023/01/02 10:28:35;;;;;;;108.37;61.37;;;;;;;21.21;43.99;95947.50;5080442;28;20204;-76
2023/01/02 10:31:07;;;;;;;108.93;63.07;;;;;;;21.41;43.04;95951.06;5082968;28;20185;-75
2023/01/02 10:33:43;;;;;;;108.17;62.97;;;;;;;20.98;43.27;95950.44;5081780;28;20232;-75
2023/01/02 10:36:20;;;;;;;105.37;62.77;;;;;;;20.77;43.33;95946.81;5083084;28;20200;-77
2023/01/02 10:38:47;;;;;;;112.63;63.28;;;;;;;20.60;43.53;95943.47;5083858;28;20547;-76
2023/01/02 10:41:14;;;;;;;116.13;63.90;;;;;;;21.03;43.39;95932.78;5079944;28;20202;-75
2023/01/02 10:43:43;;;;;;;108.53;65.90;;;;;;;21.52;42.35;95937.94;5079167;28;20193;-82
2023/01/02 10:46:10;;;;;;;110.90;62.95;;;;;;;22.08;41.53;95933.78;5085250;28;20228;-75
2023/01/02 10:48:38;;;;;;;113.68;64.05;;;;;;;22.46;40.05;95925.44;5080513;28;20193;-78
2023/01/02 10:51:11;;;;;;;105.75;61.80;;;;;;;22.81;39.40;95930.84;5079565;28;20197;-79
2023/01/02 10:53:38;;;;;;;113.03;63.55;;;;;;;23.20;37.90;95933.81;5080891;28;20649;-82
2023/01/02 10:56:08;;;;;;;106.10;64.07;;;;;;;23.40;36.82;95928.53;5081379;28;20216;-76
2023/01/02 10:58:35;;;;;;;112.50;66.20;;;;;;;23.54;36.95;95918.97;5083769;28;20203;-81
2023/01/02 11:01:07;;;;;;;111.85;68.28;;;;;;;23.36;36.42;95916.81;5075275;28;20197;-72
2023/01/02 11:03:34;;;;;;;107.53;67.60;;;;;;;23.52;35.99;95917.66;5084350;28;20200;-76
2023/01/02 11:06:01;;;;;;;112.63;69.13;;;;;;;23.37;36.13;95913.13;5080233;28;20200;-78
2023/01/02 11:08:36;;;;;;;112.43;69.25;;;;;;;23.35;35.90;95912.56;5080551;28;20705;-74
2023/01/02 11:11:14;;;;;;;128.50;72.15;;;;;;;23.40;35.63;95891.38;5082404;28;20192;-75
2023/01/02 11:13:46;;;;;;;120.85;69.75;;;;;;;23.50;35.45;95899.31;5080727;28;20178;-78
2023/01/02 11:16:16;;;;;;;111.40;68.65;;;;;;;23.29;35.97;95899.59;5080463;28;20220;-75
2023/01/02 11:18:51;;;;;;;112.57;67.93;;;;;;;23.21;36.52;95892.94;5080136;28;20197;-74
2023/01/02 11:21:27;;;;;;;113.38;69.22;;;;;;;23.38;35.72;95893.50;5082944;28;20185;-75